Time;durP1;ratioP1;P1;durP2;ratioP2;P2;SDS_P1;SDS_P2;PMS_P1;PMS_P2;Temp;Humidity;BMP_temperature;BMP_pressure;BME280_temperature;BME280_humidity;BME280_pressure;Samples;Min_cycle;Max_cycle;Signal;HPM_P1;HPM_P2
2023/06/09 00:00:30;;;;;;;1.92;1.30;;;;;;;;;;20794843;28;20281;-79
2023/06/09 00:10:31;;;;;;;2.10;1.50;;;;;;;;;;20814453;28;20266;-80
2023/06/09 00:20:35;;;;;;;4.13;1.55;;;;;;;;;;20792094;28;20225;-81
2023/06/09 00:30:36;;;;;;;2.30;1.55;;;;;;;;;;20835484;28;20283;-81
2023/06/09 00:40:38;;;;;;;2.20;1.40;;;;;;;;;;20826045;28;20282;-81
2023/06/09 00:50:40;;;;;;;3.83;1.58;;;;;;;;;;20791205;28;20703;-80
2023/06/09 01:00:41;;;;;;;3.20;1.40;;;;;;;;;;20796801;28;20277;-80
2023/06/09 01:11:02;;;;;;;2.15;1.13;;;22.40;99.90;;;;;;20822468;28;20240;-81
2023/06/09 01:21:22;;;;;;;1.77;1.30;;;22.10;99.90;;;;;;20777370;28;20207;-81
2023/06/09 01:31:24;;;;;;;1.80;1.30;;;;;;;;;;20751558;28;20288;-82
2023/06/09 01:41:26;;;;;;;2.25;1.35;;;;;;;;;;20791297;28;20226;-82
2023/06/09 01:52:00;;;;;;;2.67;1.30;;;22.00;99.90;;;;;;20817957;28;20700;-82
2023/06/09 02:02:03;;;;;;;2.45;1.40;;;21.70;99.90;;;;;;20829739;28;20415;-83
2023/06/09 02:12:06;;;;;;;2.20;1.30;;;;;;;;;;20850477;28;20243;-81
2023/06/09 02:22:08;;;;;;;2.20;1.40;;;;;;;;;;20839982;28;20219;-82
2023/06/09 02:32:10;;;;;;;2.25;1.45;;;;;;;;;;20802172;28;20250;-81
2023/06/09 02:42:12;;;;;;;2.58;1.50;;;;;;;;;;20801924;28;20219;-81
2023/06/09 02:52:14;;;;;;;3.60;1.80;;;;;;;;;;20804405;28;20232;-82
2023/06/09 03:02:16;;;;;;;2.20;1.67;;;;;;;;;;20811157;28;20273;-82
2023/06/09 03:12:18;;;;;;;2.33;1.60;;;;;;;;;;20759815;28;20292;-82
2023/06/09 03:22:20;;;;;;;2.77;1.70;;;;;;;;;;20820531;28;20244;-81
2023/06/09 03:32:23;;;;;;;3.30;1.70;;;;;;;;;;20824884;28;20238;-81
2023/06/09 03:42:26;;;;;;;4.93;1.67;;;;;;;;;;20801008;28;20252;-82
2023/06/09 03:52:28;;;;;;;3.63;2.27;;;;;;;;;;20831671;28;20233;-81
2023/06/09 04:02:32;;;;;;;2.90;2.00;;;;;;;;;;20786166;28;20241;-81
2023/06/09 04:12:34;;;;;;;2.60;2.20;;;;;;;;;;20784003;28;20242;-81
2023/06/09 04:22:36;;;;;;;2.97;2.20;;;;;;;;;;20834604;28;20241;-81
2023/06/09 04:32:38;;;;;;;2.20;1.63;;;;;;;;;;20825088;28;20250;-80
2023/06/09 04:42:40;;;;;;;2.87;2.23;;;;;;;;;;20794547;28;20227;-82
2023/06/09 04:52:44;;;;;;;2.47;1.73;;;20.80;99.90;;;;;;20824329;28;20865;-82
2023/06/09 05:02:49;;;;;;;2.70;2.00;;;;;;;;;;20793532;28;20229;-83
2023/06/09 05:12:51;;;;;;;2.47;1.93;;;;;;;;;;20791205;28;20665;-82
2023/06/09 05:22:54;;;;;;;3.17;2.17;;;;;;;;;;20817696;28;20321;-83
2023/06/09 05:32:56;;;;;;;2.30;1.73;;;;;;;;;;20816099;28;20292;-81
2023/06/09 05:42:58;;;;;;;2.87;1.90;;;;;;;;;;20829520;28;20759;-82
2023/06/09 05:53:00;;;;;;;2.83;1.87;;;;;;;;;;20849771;28;20243;-82
2023/06/09 06:03:03;;;;;;;2.60;1.90;;;;;;;;;;20813909;28;20239;-82
2023/06/09 06:13:04;;;;;;;2.47;1.97;;;;;;;;;;20835881;28;20262;-82
2023/06/09 06:23:08;;;;;;;3.40;2.30;;;;;;;;;;20817560;28;20211;-81
2023/06/09 06:33:10;;;;;;;3.03;2.10;;;;;;;;;;20837935;28;20235;-81
2023/06/09 06:43:12;;;;;;;3.60;2.33;;;;;;;;;;20832727;28;20757;-81
2023/06/09 06:53:35;;;;;;;4.97;2.57;;;22.50;99.90;;;;;;20754521;28;20233;-81
2023/06/09 07:03:40;;;;;;;2.77;2.20;;;;;;;;;;20831230;28;20224;-81
2023/06/09 07:13:41;;;;;;;3.30;2.07;;;;;;;;;;20821031;28;20607;-81
2023/06/09 07:23:43;;;;;;;2.88;2.20;;;;;;;;;;20805264;28;20830;-80
2023/06/09 07:33:45;;;;;;;2.88;1.90;;;;;;;;;;20810478;28;20238;-80
2023/06/09 07:43:46;;;;;;;3.40;2.50;;;;;;;;;;20843502;28;20415;-80
2023/06/09 07:53:48;;;;;;;5.20;2.50;;;;;;;;;;20831083;28;20439;-80
2023/06/09 08:03:50;;;;;;;3.40;1.83;;;;;;;;;;20799824;28;20428;-82
2023/06/09 08:13:54;;;;;;;3.07;1.90;;;;;;;;;;20782793;28;20439;-82
2023/06/09 08:23:56;;;;;;;3.50;2.20;;;;;;;;;;20776733;28;20433;-82
2023/06/09 08:34:00;;;;;;;4.00;2.03;;;;;;;;;;20851774;28;20452;-81
2023/06/09 08:44:02;;;;;;;2.72;1.98;;;;;;;;;;20855656;28;20468;-81
2023/06/09 08:54:04;;;;;;;2.70;1.60;;;;;;;;;;20797600;28;20437;-82
2023/06/09 09:04:06;;;;;;;2.67;1.60;;;;;;;;;;20822258;28;20435;-83
2023/06/09 09:14:11;;;;;;;2.30;1.60;;;25.80;99.90;;;;;;20802080;28;20440;-82
2023/06/09 09:24:15;;;;;;;1.80;1.30;;;;;;;;;;20810532;28;20495;-83
2023/06/09 09:34:19;;;;;;;2.33;1.37;;;26.20;98.40;;;;;;20822190;28;20463;-82
2023/06/09 09:44:21;;;;;;;1.88;1.20;;;;;;;;;;20807872;28;20998;-82
2023/06/09 09:54:23;;;;;;;3.43;1.17;;;26.50;91.20;;;;;;20819613;28;20462;-83
2023/06/09 10:04:25;;;;;;;1.38;0.90;;;;;;;;;;20804445;28;20443;-84
2023/06/09 10:14:29;;;;;;;1.30;0.90;;;;;;;;;;20831123;28;20454;-83
2023/06/09 10:24:33;;;;;;;1.70;1.10;;;;;;;;;;20799436;28;20425;-82
2023/06/09 10:34:34;;;;;;;1.60;1.10;;;;;;;;;;20832159;28;20443;-82
2023/06/09 10:44:39;;;;;;;1.83;0.90;;;;;;;;;;20785080;28;20495;-80
2023/06/09 10:54:41;;;;;;;1.13;0.90;;;;;;;;;;20818354;28;20472;-82
2023/06/09 11:04:49;;;;;;;1.20;0.80;;;;;;;;;;20812009;28;20772;-81
2023/06/09 11:14:58;;;;;;;1.10;0.80;;;28.40;91.30;;;;;;20806374;28;20442;-83
2023/06/09 11:25:00;;;;;;;1.35;0.90;;;;;;;;;;20796514;28;20460;-82
2023/06/09 11:35:04;;;;;;;1.70;0.87;;;;;;;;;;20813431;28;20505;-82
2023/06/09 11:45:07;;;;;;;1.95;0.90;;;28.70;83.80;;;;;;20808839;28;20545;-82
2023/06/09 11:55:09;;;;;;;1.40;1.00;;;29.40;84.90;;;;;;20788984;28;20451;-83
2023/06/09 12:05:12;;;;;;;1.40;0.83;;;29.10;86.80;;;;;;20773839;28;20437;-82
2023/06/09 12:15:15;;;;;;;1.27;0.97;;;29.60;87.30;;;;;;20810887;28;20453;-83
2023/06/09 12:25:25;;;;;;;2.72;0.90;;;29.40;84.40;;;;;;20767828;28;20433;-82
2023/06/09 12:35:26;;;;;;;1.23;0.90;;;;;;;;;;20802694;28;20991;-85
2023/06/09 12:45:32;;;;;;;1.50;0.80;;;29.70;81.90;;;;;;20767525;28;20434;-82
2023/06/09 12:55:34;;;;;;;1.60;0.80;;;;;;;;;;20786613;28;20792;-84
2023/06/09 13:05:36;;;;;;;1.43;0.90;;;29.80;78.20;;;;;;20822232;28;20499;-80
2023/06/09 13:15:38;;;;;;;0.90;0.70;;;;;;;;;;20832348;28;20440;-82
2023/06/09 13:25:41;;;;;;;1.60;0.80;;;;;;;;;;20831330;28;20417;-83
2023/06/09 13:35:44;;;;;;;1.30;0.90;;;;;;;;;;20826693;28;20481;-82
2023/06/09 13:45:46;;;;;;;1.35;0.80;;;;;;;;;;20816419;28;20428;-82
2023/06/09 13:55:48;;;;;;;1.37;0.90;;;;;;;;;;20814503;28;20453;-83
2023/06/09 14:05:50;;;;;;;1.77;0.87;;;;;;;;;;20812446;28;20480;-82
2023/06/09 14:15:52;;;;;;;1.47;1.00;;;;;;;;;;20769475;28;20443;-83
2023/06/09 14:25:54;;;;;;;1.13;0.90;;;;;;;;;;20825160;28;20483;-84
2023/06/09 14:35:56;;;;;;;1.10;0.70;;;;;;;;;;20813574;28;20443;-84
2023/06/09 14:45:57;;;;;;;1.90;0.90;;;;;;;;;;20850519;28;20503;-82
2023/06/09 14:55:59;;;;;;;1.83;0.83;;;;;;;;;;20812371;28;20450;-83
2023/06/09 15:06:04;;;;;;;1.88;0.80;;;;;;;;;;20808482;28;20478;-84
2023/06/09 15:16:06;;;;;;;1.83;1.03;;;;;;;;;;20785661;28;20441;-84
2023/06/09 15:26:08;;;;;;;2.33;1.03;;;;;;;;;;20838793;28;20426;-84
2023/06/09 15:36:10;;;;;;;1.63;1.10;;;;;;;;;;20800803;28;20509;-84
2023/06/09 15:46:12;;;;;;;1.80;1.00;;;;;;;;;;20810883;28;20426;-82
2023/06/09 15:56:13;;;;;;;1.55;1.00;;;;;;;;;;20804483;28;20508;-83
2023/06/09 16:06:16;;;;;;;2.33;1.20;;;;;;;;;;20812307;28;20503;-82
2023/06/09 16:16:17;;;;;;;1.40;0.97;;;31.10;65.70;;;;;;20803851;28;20580;-83
2023/06/09 16:26:19;;;;;;;1.73;1.08;;;;;;;;;;20760976;28;20484;-83
2023/06/09 16:36:21;;;;;;;2.00;1.10;;;;;;;;;;20777804;28;20944;-82
2023/06/09 16:46:23;;;;;;;2.03;1.00;;;;;;;;;;20840981;28;20503;-83
2023/06/09 16:56:25;;;;;;;2.23;1.00;;;;;;;;;;20786978;28;20446;-83
2023/06/09 17:06:27;;;;;;;3.97;3.05;;;;;;;;;;20782600;28;20499;-85
2023/06/09 17:16:29;;;;;;;1.83;1.03;;;;;;;;;;20824652;28;20453;-83
2023/06/09 17:26:32;;;;;;;2.33;1.23;;;;;;;;;;20803717;28;20437;-83
2023/06/09 17:36:33;;;;;;;1.70;1.08;;;;;;;;;;20804553;28;20754;-82
2023/06/09 17:46:35;;;;;;;1.85;1.00;;;;;;;;;;20814668;28;20509;-84
2023/06/09 17:56:37;;;;;;;1.70;1.20;;;;;;;;;;20812592;28;20519;-84
2023/06/09 18:06:46;;;;;;;2.03;1.10;;;;;;;;;;20783722;28;20856;-83
2023/06/09 18:16:48;;;;;;;2.17;1.20;;;;;;;;;;20772642;28;20480;-83
2023/06/09 18:26:50;;;;;;;1.45;1.00;;;;;;;;;;20775571;28;20412;-83
2023/06/09 18:36:52;;;;;;;2.33;1.20;;;;;;;;;;20798152;28;20492;-85
2023/06/09 18:46:53;;;;;;;2.07;1.10;;;;;;;;;;20805837;28;20437;-87
2023/06/09 18:56:55;;;;;;;1.77;1.10;;;;;;;;;;20768645;28;20447;-85
2023/06/09 19:06:58;;;;;;;3.93;1.30;;;;;;;;;;20795026;28;20433;-85
2023/06/09 19:17:00;;;;;;;2.33;1.30;;;;;;;;;;20780303;28;20465;-84
2023/06/09 19:27:02;;;;;;;3.37;1.27;;;;;;;;;;20753518;28;20446;-84
2023/06/09 19:37:05;;;;;;;2.63;1.20;;;;;;;;;;20768006;28;20519;-84
2023/06/09 19:47:06;;;;;;;1.87;1.23;;;;;;;;;;20755118;28;20523;-85
2023/06/09 19:57:08;;;;;;;1.90;1.30;;;;;;;;;;20825163;28;20461;-84
2023/06/09 20:07:10;;;;;;;2.00;1.43;;;;;;;;;;20784095;28;20449;-84
2023/06/09 20:17:12;;;;;;;5.20;1.60;;;;;;;;;;20760047;28;20465;-80
2023/06/09 20:27:14;;;;;;;2.00;1.30;;;;;;;;;;20803105;28;20425;-82
2023/06/09 20:37:16;;;;;;;2.60;1.57;;;;;;;;;;20804351;28;20524;-83
2023/06/09 20:47:19;;;;;;;1.80;1.40;;;;;;;;;;20783120;28;20434;-81
2023/06/09 20:57:24;;;;;;;2.20;1.50;;;;;;;;;;20750319;28;20441;-81
2023/06/09 21:07:26;;;;;;;2.17;1.35;;;;;;;;;;20811801;28;20443;-81
2023/06/09 21:17:28;;;;;;;4.47;1.70;;;;;;;;;;20808699;28;20511;-82
2023/06/09 21:27:31;;;;;;;2.60;1.63;;;;;;;;;;20784767;28;20449;-81
2023/06/09 21:37:33;;;;;;;3.40;1.77;;;27.10;84.80;;;;;;20831565;28;20995;-80
2023/06/09 21:47:35;;;;;;;2.80;1.70;;;;;;;;;;20796536;28;20433;-81
2023/06/09 21:57:37;;;;;;;4.50;1.70;;;;;;;;;;20823536;28;20435;-81
2023/06/09 22:07:39;;;;;;;2.38;1.58;;;26.90;89.10;;;;;;20810436;28;20425;-82
2023/06/09 22:17:41;;;;;;;2.23;1.67;;;;;;;;;;20841107;28;20449;-82
2023/06/09 22:27:45;;;;;;;3.00;1.93;;;;;;;;;;20806179;28;20445;-80
2023/06/09 22:37:47;;;;;;;3.00;1.90;;;;;;;;;;20810847;28;20444;-81
2023/06/09 22:47:49;;;;;;;2.80;1.90;;;;;;;;;;20831320;28;20791;-81
2023/06/09 22:57:51;;;;;;;2.43;1.70;;;;;;;;;;20855089;28;20437;-81
2023/06/09 23:07:53;;;;;;;6.60;2.20;;;;;;;;;;20813634;28;20503;-82
2023/06/09 23:17:57;;;;;;;2.10;1.60;;;;;;;;;;20860114;28;20497;-82
2023/06/09 23:27:59;;;;;;;3.03;1.60;;;;;;;;;;20842856;28;20856;-82
2023/06/09 23:38:01;;;;;;;2.93;1.83;;;;;;;;;;20805288;28;20952;-82
2023/06/09 23:48:03;;;;;;;3.03;1.93;;;;;;;;;;20777903;28;20444;-82
2023/06/09 23:58:04;;;;;;;3.33;2.03;;;;;;;;;;20788444;28;20867;-81
